Time;durP1;ratioP1;P1;durP2;ratioP2;P2;SDS_P1;SDS_P2;PMS_P1;PMS_P2;Temp;Humidity;BMP_temperature;BMP_pressure;BME280_temperature;BME280_humidity;BME280_pressure;Samples;Min_cycle;Max_cycle;Signal;HPM_P1;HPM_P2
2022/05/24 00:00:55;;;;;;;0.98;0.50;;;11.50;99.90;;;;;;5049068;28;20084;-56
2022/05/24 00:03:21;;;;;;;0.80;0.35;;;11.60;99.90;;;;;;5048592;28;20128;-55
2022/05/24 00:05:48;;;;;;;0.45;0.40;;;11.50;99.90;;;;;;5049377;28;20512;-55
2022/05/24 00:08:15;;;;;;;1.35;0.60;;;11.50;99.90;;;;;;5080717;28;20588;-58
2022/05/24 00:10:42;;;;;;;3.78;0.40;;;11.50;99.90;;;;;;5048639;28;20136;-54
2022/05/24 00:13:10;;;;;;;3.10;1.40;;;11.40;99.90;;;;;;5047808;28;20048;-58
2022/05/24 00:15:37;;;;;;;0.40;0.40;;;11.40;99.90;;;;;;5049320;28;20599;-58
2022/05/24 00:18:07;;;;;;;0.65;0.45;;;11.40;99.90;;;;;;5080482;28;20102;-56
2022/05/24 00:20:41;;;;;;;3.08;0.60;;;11.30;99.90;;;;;;5048829;28;20494;-58
2022/05/24 00:23:08;;;;;;;0.82;0.40;;;11.30;99.90;;;;;;5048415;28;20166;-57
2022/05/24 00:25:36;;;;;;;1.35;0.85;;;11.30;99.90;;;;;;5045462;28;20045;-58
2022/05/24 00:28:03;;;;;;;0.73;0.40;;;11.30;99.90;;;;;;5048615;28;20136;-57
2022/05/24 00:30:30;;;;;;;1.55;1.00;;;11.30;99.90;;;;;;5063375;28;20041;-56
2022/05/24 00:32:57;;;;;;;0.75;0.50;;;11.30;99.90;;;;;;5048388;28;20139;-57
2022/05/24 00:35:23;;;;;;;0.60;0.60;;;11.30;99.90;;;;;;5048384;28;20090;-57
2022/05/24 00:37:50;;;;;;;1.73;0.80;;;11.30;99.90;;;;;;5048955;28;20087;-58
2022/05/24 00:40:27;;;;;;;1.38;0.60;;;11.30;99.90;;;;;;5079816;28;20128;-57
2022/05/24 00:42:54;;;;;;;0.50;0.50;;;11.30;99.90;;;;;;5043035;28;20049;-56
2022/05/24 00:45:31;;;;;;;1.00;0.60;;;11.20;99.90;;;;;;5044934;28;20389;-58
2022/05/24 00:48:08;;;;;;;1.10;0.82;;;11.20;99.90;;;;;;5078193;28;20144;-57
2022/05/24 00:50:38;;;;;;;0.88;0.60;;;11.20;99.90;;;;;;5062613;28;20297;-57
2022/05/24 00:53:06;;;;;;;2.10;0.82;;;11.30;99.90;;;;;;5079994;28;20112;-58
2022/05/24 00:55:43;;;;;;;1.77;0.80;;;11.30;99.90;;;;;;5048142;28;20135;-56
2022/05/24 00:58:31;;;;;;;1.75;0.80;;;11.30;99.90;;;;;;5079955;28;20095;-58
2022/05/24 01:01:00;;;;;;;1.05;0.82;;;11.30;99.90;;;;;;5047723;28;20467;-57
2022/05/24 01:03:35;;;;;;;1.06;0.76;;;11.30;99.90;;;;;;5023558;28;10000888;-58
2022/05/24 01:06:02;;;;;;;2.05;0.70;;;11.30;99.90;;;;;;5045071;28;20326;-58
2022/05/24 01:08:32;;;;;;;2.25;0.80;;;11.30;99.90;;;;;;5080112;28;20158;-57
2022/05/24 01:10:59;;;;;;;2.25;0.65;;;11.30;99.90;;;;;;5047322;28;20083;-58
2022/05/24 01:13:27;;;;;;;0.90;0.77;;;11.30;99.90;;;;;;5079986;28;20080;-55
2022/05/24 01:15:53;;;;;;;1.08;0.55;;;11.20;99.90;;;;;;5079355;28;20571;-55
2022/05/24 01:18:21;;;;;;;0.95;0.60;;;11.20;99.90;;;;;;5079496;28;20477;-54
2022/05/24 01:20:58;;;;;;;1.73;1.10;;;11.20;99.90;;;;;;5062730;28;20463;-56
2022/05/24 01:23:48;;;;;;;0.75;0.50;;;11.30;99.90;;;;;;5061968;28;20087;-55
2022/05/24 01:26:42;;;;;;;1.35;0.70;;;11.20;99.90;;;;;;5079140;28;20079;-56
2022/05/24 01:29:14;;;;;;;0.75;0.60;;;11.20;99.90;;;;;;5047424;28;20087;-58
2022/05/24 01:37:13;;;;;;;1.10;0.70;;;11.20;99.90;;;;;;5059019;28;20564;-53
2022/05/24 01:39:42;;;;;;;2.42;0.60;;;11.10;99.90;;;;;;5079655;28;20504;-55
2022/05/24 01:42:09;;;;;;;1.30;0.70;;;11.10;99.90;;;;;;5061758;28;20096;-51
2022/05/24 01:44:39;;;;;;;1.02;0.47;;;11.00;99.90;;;;;;5047533;28;20084;-54
2022/05/24 01:47:06;;;;;;;2.05;0.70;;;11.00;99.90;;;;;;5045686;28;20049;-57
2022/05/24 01:49:35;;;;;;;1.20;0.68;;;11.10;99.90;;;;;;5047272;28;20135;-55
2022/05/24 01:52:07;;;;;;;0.90;0.50;;;11.00;99.90;;;;;;5078008;28;20124;-56
2022/05/24 01:54:37;;;;;;;0.82;0.65;;;11.10;99.90;;;;;;5079649;28;20079;-54
2022/05/24 01:57:09;;;;;;;1.17;0.68;;;11.00;99.90;;;;;;5078374;28;20136;-56
2022/05/24 01:59:36;;;;;;;0.68;0.55;;;11.00;99.90;;;;;;5062441;28;20084;-55
2022/05/24 02:02:03;;;;;;;2.20;0.70;;;10.90;99.90;;;;;;5061219;28;20048;-57
2022/05/24 02:04:30;;;;;;;0.82;0.68;;;10.90;99.90;;;;;;5047395;28;20495;-55
2022/05/24 02:07:05;;;;;;;0.75;0.68;;;10.90;99.90;;;;;;5046394;28;20464;-56
2022/05/24 02:09:33;;;;;;;1.75;0.85;;;10.90;99.90;;;;;;5036927;28;20045;-54
2022/05/24 02:12:03;;;;;;;1.65;0.82;;;10.80;99.90;;;;;;5045148;28;20088;-51
2022/05/24 02:14:35;;;;;;;0.60;0.60;;;10.90;99.90;;;;;;5061777;28;20152;-53
2022/05/24 02:17:06;;;;;;;0.47;0.43;;;10.90;99.90;;;;;;5045041;28;20503;-52
2022/05/24 02:19:34;;;;;;;1.55;0.70;;;10.80;99.90;;;;;;5078879;28;20478;-57
2022/05/24 02:22:03;;;;;;;1.05;0.68;;;10.90;99.90;;;;;;5061405;28;20136;-55
2022/05/24 02:24:30;;;;;;;2.08;0.60;;;10.80;99.90;;;;;;5078832;28;20068;-55
2022/05/24 02:26:57;;;;;;;2.25;0.55;;;10.80;99.90;;;;;;5046681;28;20527;-52
2022/05/24 02:29:24;;;;;;;0.73;0.47;;;10.80;99.90;;;;;;5078788;28;20045;-50
2022/05/24 02:31:51;;;;;;;0.75;0.40;;;10.80;99.90;;;;;;5046643;28;20048;-57
2022/05/24 02:34:18;;;;;;;1.92;0.85;;;10.80;99.90;;;;;;5046336;28;20500;-56
2022/05/24 02:36:45;;;;;;;1.98;0.50;;;10.80;99.90;;;;;;5047150;28;20057;-56
2022/05/24 02:39:12;;;;;;;0.77;0.52;;;10.70;99.90;;;;;;5044849;28;20579;-56
2022/05/24 02:41:38;;;;;;;3.13;0.90;;;10.70;99.90;;;;;;5046860;28;20092;-56
2022/05/24 02:44:10;;;;;;;1.02;0.60;;;10.70;99.90;;;;;;5046424;28;20111;-56
2022/05/24 02:46:40;;;;;;;1.10;0.88;;;10.70;99.90;;;;;;5047069;28;20411;-55
2022/05/24 02:49:07;;;;;;;0.65;0.40;;;10.70;99.90;;;;;;5047104;28;20131;-56
2022/05/24 02:51:35;;;;;;;1.17;0.82;;;10.60;99.90;;;;;;5050738;28;20052;-56
2022/05/24 02:54:02;;;;;;;0.65;0.45;;;10.60;99.90;;;;;;5049644;28;20044;-56
2022/05/24 02:56:29;;;;;;;0.70;0.50;;;10.70;99.90;;;;;;5050570;28;20585;-57
2022/05/24 02:58:55;;;;;;;0.93;0.55;;;10.60;99.90;;;;;;5050210;28;20099;-56
2022/05/24 03:01:24;;;;;;;1.05;0.40;;;10.60;99.90;;;;;;5050472;28;20091;-57
2022/05/24 03:03:51;;;;;;;0.50;0.50;;;10.60;99.90;;;;;;5049797;28;20155;-57
2022/05/24 03:06:19;;;;;;;0.30;0.30;;;10.60;99.90;;;;;;5049694;28;20132;-56
2022/05/24 03:14:17;;;;;;;0.30;0.30;;;10.70;99.90;;;;;;5049564;28;20052;-55
2022/05/24 03:16:48;;;;;;;0.57;0.50;;;10.70;99.90;;;;;;5050427;28;20072;-56
2022/05/24 03:19:15;;;;;;;0.45;0.40;;;10.80;99.90;;;;;;5049402;28;20075;-56
2022/05/24 03:21:43;;;;;;;1.02;0.30;;;10.80;99.90;;;;;;5049631;28;20164;-57
2022/05/24 03:24:10;;;;;;;0.38;0.30;;;10.80;99.90;;;;;;5049249;28;20053;-55
2022/05/24 03:26:37;;;;;;;3.10;0.80;;;10.80;99.90;;;;;;5050307;28;20150;-53
2022/05/24 03:29:05;;;;;;;0.40;0.40;;;10.80;99.90;;;;;;5049675;28;20091;-57
2022/05/24 03:31:32;;;;;;;0.98;0.88;;;10.80;99.90;;;;;;5049647;28;20531;-57
2022/05/24 03:34:00;;;;;;;0.88;0.50;;;10.90;99.90;;;;;;5049388;28;20056;-56
2022/05/24 03:36:27;;;;;;;0.90;0.60;;;10.80;99.90;;;;;;5049122;28;20559;-56
2022/05/24 03:38:53;;;;;;;0.55;0.40;;;10.80;99.90;;;;;;5049843;28;20155;-57
2022/05/24 03:41:20;;;;;;;2.08;0.47;;;10.90;99.90;;;;;;5049260;28;20468;-54
2022/05/24 03:43:47;;;;;;;0.30;0.30;;;10.90;99.90;;;;;;5049710;28;20091;-57
2022/05/24 03:46:14;;;;;;;0.98;0.60;;;10.90;99.90;;;;;;5048875;28;20049;-56
2022/05/24 03:48:41;;;;;;;0.30;0.30;;;10.90;99.90;;;;;;5049745;28;20059;-55
2022/05/24 03:51:07;;;;;;;0.45;0.40;;;11.00;99.90;;;;;;5048487;28;20095;-55
2022/05/24 03:53:34;;;;;;;2.28;0.60;;;11.00;99.90;;;;;;5049629;28;20083;-57
2022/05/24 03:56:01;;;;;;;0.88;0.50;;;11.00;99.90;;;;;;5048802;28;20052;-55
2022/05/24 03:58:28;;;;;;;0.40;0.40;;;11.00;99.90;;;;;;5049536;28;20053;-57
2022/05/24 04:00:56;;;;;;;2.15;0.65;;;10.90;99.90;;;;;;5048098;28;20053;-57
2022/05/24 04:03:23;;;;;;;8.35;1.63;;;11.00;99.90;;;;;;5032405;28;20057;-56
2022/05/24 04:05:50;;;;;;;1.83;0.63;;;11.00;99.90;;;;;;5046791;28;20045;-56
2022/05/24 04:08:18;;;;;;;1.58;0.80;;;10.90;99.90;;;;;;5048453;28;20472;-57
2022/05/24 04:10:45;;;;;;;2.80;0.95;;;10.80;99.90;;;;;;5080702;28;20077;-56
2022/05/24 04:13:12;;;;;;;6.03;1.13;;;10.70;99.90;;;;;;5048563;28;20491;-55
2022/05/24 04:15:39;;;;;;;4.13;1.17;;;10.60;99.90;;;;;;5080416;28;20412;-56
2022/05/24 04:18:06;;;;;;;2.90;1.08;;;10.50;99.90;;;;;;5049309;28;20132;-57
2022/05/24 04:20:33;;;;;;;2.10;0.98;;;10.40;99.90;;;;;;5049894;28;20132;-57
2022/05/24 04:23:00;;;;;;;2.63;1.10;;;10.30;99.90;;;;;;5049259;28;20566;-57
2022/05/24 04:25:27;;;;;;;3.45;1.05;;;10.20;99.90;;;;;;5081985;28;20158;-55
2022/05/24 04:27:54;;;;;;;2.28;0.75;;;10.30;99.90;;;;;;5049176;28;20095;-55
2022/05/24 04:30:20;;;;;;;3.97;0.85;;;10.20;99.90;;;;;;5065137;28;20049;-53
2022/05/24 04:32:47;;;;;;;1.45;1.10;;;10.20;99.90;;;;;;5049063;28;20103;-56
2022/05/24 04:35:14;;;;;;;2.00;1.17;;;10.20;99.90;;;;;;5049448;28;20051;-57
2022/05/24 04:37:41;;;;;;;3.03;1.15;;;10.20;99.90;;;;;;5049064;28;20080;-55
2022/05/24 04:40:08;;;;;;;3.20;1.23;;;10.20;99.90;;;;;;5049025;28;20629;-55
2022/05/24 04:42:35;;;;;;;1.25;1.00;;;10.20;99.90;;;;;;5048205;28;20103;-56
2022/05/24 04:45:06;;;;;;;1.35;0.77;;;10.20;99.90;;;;;;5049366;28;20045;-59
2022/05/24 04:47:33;;;;;;;3.80;1.77;;;10.20;99.90;;;;;;5049059;28;20045;-57
2022/05/24 04:50:03;;;;;;;3.03;1.20;;;10.20;99.90;;;;;;5049308;28;20118;-55
2022/05/24 04:52:33;;;;;;;2.13;1.42;;;10.30;99.90;;;;;;5048335;28;20415;-57
2022/05/24 04:54:59;;;;;;;1.10;0.90;;;10.30;99.90;;;;;;5038324;28;20135;-56
2022/05/24 04:57:26;;;;;;;2.63;1.35;;;10.30;99.90;;;;;;5049364;28;20091;-58
2022/05/24 04:59:53;;;;;;;3.38;1.25;;;10.20;99.90;;;;;;5049271;28;20056;-56
2022/05/24 05:02:20;;;;;;;4.35;1.45;;;10.30;99.90;;;;;;5048863;28;20103;-56
2022/05/24 05:04:47;;;;;;;5.40;1.70;;;10.40;99.90;;;;;;5048803;28;20045;-55
2022/05/24 05:07:16;;;;;;;4.70;1.90;;;10.60;99.90;;;;;;5048817;28;20060;-57
2022/05/24 05:09:44;;;;;;;2.63;1.70;;;10.60;99.90;;;;;;5048751;28;20040;-57
2022/05/24 05:12:11;;;;;;;5.05;1.67;;;10.60;99.90;;;;;;5047996;28;20427;-56
2022/05/24 05:14:39;;;;;;;1.88;1.33;;;10.60;99.90;;;;;;5048452;28;20081;-56
2022/05/24 05:17:06;;;;;;;3.63;1.40;;;10.70;99.90;;;;;;5048832;28;20117;-53
2022/05/24 05:19:32;;;;;;;2.45;1.35;;;10.70;99.90;;;;;;5048438;28;20097;-56
2022/05/24 05:22:02;;;;;;;5.60;1.45;;;10.70;99.90;;;;;;5048526;28;20085;-55
2022/05/24 05:24:29;;;;;;;3.50;1.30;;;10.70;99.90;;;;;;5048275;28;20049;-57
2022/05/24 05:26:56;;;;;;;3.15;1.13;;;10.70;99.90;;;;;;5048848;28;20045;-56
2022/05/24 05:32:22;;;;;;;3.95;1.50;;;10.70;99.90;;;;;;5006021;28;20128;-56
2022/05/24 05:34:49;;;;;;;2.20;1.35;;;10.70;99.90;;;;;;5043140;28;20045;-57
2022/05/24 05:37:16;;;;;;;2.97;1.75;;;10.70;99.90;;;;;;5048648;28;20052;-57
2022/05/24 05:39:43;;;;;;;4.03;1.73;;;10.70;99.90;;;;;;5048263;28;20093;-56
2022/05/24 05:42:09;;;;;;;4.82;1.52;;;10.80;99.90;;;;;;5048424;28;20076;-55
2022/05/24 05:44:37;;;;;;;3.33;1.40;;;10.80;99.90;;;;;;5048124;28;20476;-57
2022/05/24 05:47:04;;;;;;;3.58;1.80;;;10.90;99.90;;;;;;5048399;28;20079;-57
2022/05/24 05:49:31;;;;;;;4.43;1.88;;;10.90;99.90;;;;;;5048345;28;20072;-57
2022/05/24 05:51:57;;;;;;;8.55;1.75;;;10.90;99.90;;;;;;5047721;28;20136;-56
2022/05/24 05:54:24;;;;;;;5.30;2.42;;;10.90;99.90;;;;;;5033797;28;20037;-57
2022/05/24 05:56:51;;;;;;;5.38;1.98;;;11.00;99.90;;;;;;5048104;28;20556;-57
2022/05/24 05:59:18;;;;;;;6.22;2.10;;;11.10;99.90;;;;;;5047910;28;20729;-57
2022/05/24 06:01:45;;;;;;;2.88;1.60;;;11.10;99.90;;;;;;5047951;28;20049;-57
2022/05/24 06:04:11;;;;;;;8.65;2.85;;;11.10;99.90;;;;;;5047747;28;20496;-56
2022/05/24 06:06:40;;;;;;;3.03;2.13;;;11.10;99.90;;;;;;5047578;28;20057;-55
2022/05/24 06:09:07;;;;;;;4.82;2.03;;;11.20;99.90;;;;;;5080162;28;20059;-54
2022/05/24 06:11:34;;;;;;;3.78;1.73;;;11.20;99.90;;;;;;5047506;28;20080;-54
2022/05/24 06:14:01;;;;;;;2.92;1.92;;;11.20;99.90;;;;;;5047485;28;20049;-56
2022/05/24 06:16:32;;;;;;;4.00;2.47;;;11.20;99.90;;;;;;5046289;28;20041;-57
2022/05/24 06:18:59;;;;;;;2.42;1.80;;;11.30;99.90;;;;;;5048150;28;20053;-56
2022/05/24 06:21:26;;;;;;;2.90;1.70;;;11.30;99.90;;;;;;5047622;28;20102;-56
2022/05/24 06:23:53;;;;;;;2.95;1.80;;;11.20;99.90;;;;;;5050446;28;20546;-56
2022/05/24 06:26:21;;;;;;;2.72;1.45;;;11.30;99.90;;;;;;5051637;28;20037;-57
2022/05/24 06:28:48;;;;;;;2.45;1.60;;;11.20;99.90;;;;;;5050666;28;20052;-57
2022/05/24 06:31:15;;;;;;;4.32;2.30;;;11.20;99.90;;;;;;5050995;28;20126;-58
2022/05/24 06:33:43;;;;;;;2.83;1.90;;;11.20;99.90;;;;;;5051847;28;20480;-56
2022/05/24 06:36:10;;;;;;;4.20;2.10;;;11.20;99.90;;;;;;5052899;28;20064;-56
2022/05/24 06:38:37;;;;;;;5.28;2.13;;;11.20;99.90;;;;;;5050600;28;20642;-56
2022/05/24 06:41:04;;;;;;;4.45;2.40;;;11.30;99.90;;;;;;5050599;28;20148;-57
2022/05/24 06:43:33;;;;;;;4.25;2.08;;;11.40;99.90;;;;;;5082662;28;20049;-56
2022/05/24 06:46:00;;;;;;;3.50;2.17;;;11.50;99.90;;;;;;5049794;28;20092;-54
2022/05/24 06:48:28;;;;;;;3.17;1.65;;;11.60;99.90;;;;;;5049595;28;20053;-56
2022/05/24 06:50:55;;;;;;;3.88;1.25;;;11.70;99.90;;;;;;5050398;28;20098;-56
2022/05/24 06:53:22;;;;;;;3.65;1.38;;;11.80;99.90;;;;;;5050783;28;20069;-56
2022/05/24 06:55:49;;;;;;;5.43;2.45;;;11.80;99.90;;;;;;5049462;28;20095;-57
2022/05/24 06:58:15;;;;;;;3.00;1.60;;;11.90;99.90;;;;;;5045375;28;20084;-53
2022/05/24 07:03:50;;;;;;;2.67;1.60;;;11.70;99.90;;;;;;4984814;28;20073;-57
2022/05/24 07:06:17;;;;;;;3.55;1.48;;;11.70;99.90;;;;;;4974950;28;20051;-53
2022/05/24 07:08:45;;;;;;;1.98;1.25;;;11.60;99.90;;;;;;5006686;28;20048;-54
2022/05/24 07:11:12;;;;;;;7.70;1.65;;;11.50;99.90;;;;;;5047320;28;20447;-58
2022/05/24 07:13:39;;;;;;;3.05;1.52;;;11.50;99.90;;;;;;5050212;28;20179;-59
2022/05/24 07:16:07;;;;;;;3.42;1.80;;;11.50;99.90;;;;;;5050140;28;20114;-54
2022/05/24 07:18:34;;;;;;;2.35;1.67;;;11.50;99.90;;;;;;5049852;28;20527;-54
2022/05/24 07:21:01;;;;;;;3.92;1.80;;;11.50;99.90;;;;;;5049987;28;20084;-60
2022/05/24 07:23:28;;;;;;;3.95;2.03;;;11.40;99.90;;;;;;5049794;28;20144;-56
2022/05/24 07:25:56;;;;;;;2.03;1.63;;;11.50;99.90;;;;;;5048496;28;20083;-55
2022/05/24 07:28:23;;;;;;;4.60;1.40;;;11.40;99.90;;;;;;5063539;28;20037;-53
2022/05/24 07:30:50;;;;;;;3.42;1.98;;;11.30;99.90;;;;;;5049683;28;20076;-57
2022/05/24 07:33:17;;;;;;;1.60;1.40;;;11.30;99.90;;;;;;5047918;28;20207;-56
2022/05/24 07:35:43;;;;;;;3.15;1.27;;;11.40;99.90;;;;;;5048762;28;20087;-57
2022/05/24 07:38:11;;;;;;;2.75;1.83;;;11.40;99.90;;;;;;5048725;28;20045;-57
2022/05/24 07:46:11;;;;;;;4.65;1.40;;;11.60;99.90;;;;;;5047396;28;20150;-56
2022/05/24 07:48:38;;;;;;;3.28;1.42;;;11.60;99.90;;;;;;5046493;28;20053;-57
2022/05/24 07:51:05;;;;;;;2.15;1.20;;;11.60;99.90;;;;;;5047689;28;20560;-56
2022/05/24 07:53:32;;;;;;;4.85;1.60;;;11.60;99.90;;;;;;5047365;28;20095;-57
2022/05/24 07:55:59;;;;;;;3.92;1.70;;;11.70;99.90;;;;;;5036896;28;20072;-56
2022/05/24 07:58:26;;;;;;;1.67;1.40;;;11.90;99.90;;;;;;5048317;28;20040;-56
2022/05/24 08:00:57;;;;;;;3.95;1.30;;;12.10;99.90;;;;;;5049465;28;20133;-57
2022/05/24 08:03:24;;;;;;;2.33;1.13;;;12.20;99.90;;;;;;5048734;28;21206;-55
2022/05/24 08:05:51;;;;;;;1.70;1.40;;;12.30;99.90;;;;;;5049205;28;20055;-55
2022/05/24 08:08:18;;;;;;;2.58;1.13;;;12.20;99.90;;;;;;5048727;28;20152;-56
2022/05/24 08:10:45;;;;;;;3.75;1.33;;;12.10;99.90;;;;;;5048841;28;20046;-53
2022/05/24 08:13:13;;;;;;;3.47;1.50;;;12.00;99.90;;;;;;5048956;28;20088;-55
2022/05/24 08:15:40;;;;;;;3.75;1.90;;;11.90;99.90;;;;;;5048723;28;20092;-60
2022/05/24 08:18:07;;;;;;;8.52;1.85;;;11.80;99.90;;;;;;5081044;28;20084;-53
2022/05/24 08:20:34;;;;;;;5.15;1.80;;;11.80;99.90;;;;;;5048541;28;20049;-56
2022/05/24 08:23:01;;;;;;;1.88;1.38;;;11.80;99.90;;;;;;5049057;28;20414;-57
2022/05/24 08:25:33;;;;;;;1.58;1.48;;;11.80;99.90;;;;;;5048497;28;20049;-56
2022/05/24 08:28:02;;;;;;;2.28;1.65;;;11.80;99.90;;;;;;5080938;28;20041;-55
2022/05/24 08:30:30;;;;;;;8.52;2.92;;;11.90;99.90;;;;;;5079874;28;20558;-56
2022/05/24 08:32:57;;;;;;;3.60;1.67;;;12.10;99.90;;;;;;5049042;28;20076;-53
2022/05/24 08:35:24;;;;;;;1.70;1.10;;;12.20;99.90;;;;;;5048394;28;20045;-54
2022/05/24 08:37:51;;;;;;;1.30;1.10;;;12.40;99.90;;;;;;5048884;28;20088;-57
2022/05/24 08:40:18;;;;;;;1.67;1.27;;;12.50;99.90;;;;;;5048323;28;20072;-57
2022/05/24 08:43:22;;;;;;;1.60;1.10;;;12.50;99.90;;;;;;5048594;28;20053;-59
2022/05/24 08:48:44;;;;;;;0.93;0.82;;;12.70;99.90;;;;;;5048423;28;20045;-54
2022/05/24 08:51:23;;;;;;;3.17;1.50;;;12.80;99.90;;;;;;5079653;28;20076;-56
2022/05/24 08:53:52;;;;;;;2.08;1.00;;;12.90;99.90;;;;;;5048331;28;20049;-57
2022/05/24 08:56:50;;;;;;;2.17;1.10;;;12.90;99.90;;;;;;5062724;28;20072;-56
2022/05/24 08:59:29;;;;;;;1.25;0.93;;;12.90;99.90;;;;;;5048364;28;20063;-56
2022/05/24 09:01:56;;;;;;;3.92;1.00;;;12.90;99.90;;;;;;5080275;28;20128;-56
2022/05/24 09:04:23;;;;;;;1.42;0.80;;;12.90;99.90;;;;;;5063456;28;20119;-60
2022/05/24 09:06:59;;;;;;;3.13;0.70;;;13.00;99.90;;;;;;5047645;28;20106;-58
2022/05/24 09:09:55;;;;;;;4.53;0.90;;;13.00;99.90;;;;;;5062949;28;20045;-60
2022/05/24 09:12:57;;;;;;;3.22;0.95;;;13.00;99.90;;;;;;5041145;28;20454;-59
2022/05/24 09:15:45;;;;;;;1.02;0.70;;;13.10;99.90;;;;;;5028566;28;20453;-58
2022/05/24 09:18:21;;;;;;;1.35;0.70;;;13.30;99.90;;;;;;5047666;28;20429;-58
2022/05/24 09:20:48;;;;;;;1.33;0.70;;;13.40;99.90;;;;;;5048431;28;20059;-60
2022/05/24 09:23:39;;;;;;;3.65;0.75;;;13.30;99.90;;;;;;5048029;28;20075;-58
2022/05/24 09:26:11;;;;;;;1.70;0.68;;;13.30;99.90;;;;;;5079363;28;20144;-59
2022/05/24 09:28:50;;;;;;;1.02;0.63;;;13.30;99.90;;;;;;5044759;28;20064;-60
2022/05/24 09:31:35;;;;;;;0.98;0.47;;;13.30;99.90;;;;;;5046298;28;20063;-58
2022/05/24 09:34:31;;;;;;;3.15;0.55;;;13.40;99.90;;;;;;5046795;28;20507;-57
2022/05/24 09:36:59;;;;;;;2.40;0.73;;;13.60;99.90;;;;;;5076748;28;20492;-58
2022/05/24 09:39:30;;;;;;;0.60;0.60;;;13.60;99.90;;;;;;5037168;28;20472;-59
2022/05/24 09:42:02;;;;;;;1.15;0.70;;;13.70;99.90;;;;;;5048017;28;20095;-51
2022/05/24 09:44:47;;;;;;;2.67;0.80;;;13.60;99.90;;;;;;5047693;28;20134;-56
2022/05/24 09:47:25;;;;;;;1.67;0.88;;;13.60;99.90;;;;;;5074885;28;20102;-52
2022/05/24 09:49:54;;;;;;;3.40;0.88;;;13.80;99.90;;;;;;5037557;28;20552;-54
2022/05/24 09:52:21;;;;;;;0.65;0.50;;;13.90;99.90;;;;;;5078566;28;20045;-55
2022/05/24 09:54:58;;;;;;;1.52;0.68;;;14.00;99.90;;;;;;5063065;28;20099;-56
2022/05/24 09:57:28;;;;;;;6.10;0.68;;;14.20;99.90;;;;;;5047336;28;20053;-57
2022/05/24 10:00:07;;;;;;;0.63;0.50;;;14.40;99.90;;;;;;5047674;28;20118;-57
2022/05/24 10:02:34;;;;;;;0.77;0.47;;;14.60;99.90;;;;;;5047430;28;20056;-55
2022/05/24 10:05:03;;;;;;;2.65;0.93;;;14.50;99.90;;;;;;5047423;28;20088;-55
2022/05/24 10:07:32;;;;;;;1.45;0.57;;;14.80;99.90;;;;;;5046819;28;20516;-55
2022/05/24 10:10:05;;;;;;;5.00;0.70;;;15.20;99.90;;;;;;5047761;28;20110;-53
2022/05/24 10:12:50;;;;;;;6.15;0.90;;;15.40;99.90;;;;;;5047714;28;20073;-60
2022/05/24 10:15:27;;;;;;;1.33;0.93;;;15.40;99.90;;;;;;5044937;28;20064;-55
2022/05/24 10:18:18;;;;;;;0.60;0.40;;;15.30;99.90;;;;;;5077728;28;20056;-55
2022/05/24 10:21:06;;;;;;;1.83;0.70;;;15.10;99.90;;;;;;5077637;28;20045;-55
2022/05/24 10:24:12;;;;;;;0.75;0.50;;;15.10;99.90;;;;;;5047319;28;20083;-55
2022/05/24 10:26:51;;;;;;;1.27;0.60;;;15.10;99.90;;;;;;5040582;28;20133;-56
2022/05/24 10:29:37;;;;;;;2.53;0.35;;;15.10;99.90;;;;;;5047440;28;20048;-56
2022/05/24 10:38:21;;;;;;;4.78;0.80;;;14.90;99.90;;;;;;5047087;28;20076;-56
2022/05/24 10:41:02;;;;;;;3.53;0.55;;;14.90;99.90;;;;;;5047069;28;20128;-56
2022/05/24 10:43:47;;;;;;;1.85;0.55;;;15.30;99.90;;;;;;5079430;28;20077;-56
2022/05/24 10:46:17;;;;;;;0.95;0.70;;;16.00;99.90;;;;;;5043752;28;20462;-56
2022/05/24 10:48:59;;;;;;;0.88;0.52;;;16.20;99.90;;;;;;5047262;28;20045;-55
2022/05/24 10:51:48;;;;;;;1.45;0.88;;;16.30;99.90;;;;;;5073910;28;20080;-55
2022/05/24 10:54:34;;;;;;;6.25;0.77;;;16.40;99.90;;;;;;5047197;28;20144;-55
2022/05/24 10:57:15;;;;;;;1.40;0.60;;;16.30;99.90;;;;;;5036034;28;20469;-57
2022/05/24 11:00:04;;;;;;;2.45;0.50;;;16.30;99.90;;;;;;5075859;28;20762;-56
2022/05/24 11:02:55;;;;;;;1.55;0.50;;;16.30;99.90;;;;;;5038691;28;20076;-53
2022/05/24 11:05:26;;;;;;;0.73;0.55;;;16.30;99.90;;;;;;5046716;28;20076;-54
2022/05/24 11:08:34;;;;;;;6.43;0.80;;;16.10;99.90;;;;;;5047084;28;20119;-55
2022/05/24 11:11:36;;;;;;;4.03;0.60;;;16.00;99.90;;;;;;5049373;28;20143;-55
2022/05/24 11:14:30;;;;;;;4.70;0.70;;;16.10;99.90;;;;;;5016882;28;20416;-56
2022/05/24 11:16:57;;;;;;;2.47;0.50;;;16.30;99.90;;;;;;5082006;28;20139;-57
2022/05/24 11:19:28;;;;;;;1.85;0.50;;;16.40;99.90;;;;;;5082797;28;20456;-54
2022/05/24 11:22:09;;;;;;;1.75;0.60;;;16.50;99.90;;;;;;5050290;28;20052;-57
2022/05/24 11:24:42;;;;;;;3.75;0.85;;;16.40;99.90;;;;;;5050604;28;20076;-57
2022/05/24 11:27:13;;;;;;;7.35;0.90;;;16.20;99.90;;;;;;5050230;28;20070;-56
2022/05/24 11:29:51;;;;;;;4.75;1.00;;;16.10;99.90;;;;;;5051009;28;20049;-57
2022/05/24 11:32:32;;;;;;;3.60;0.50;;;15.90;99.90;;;;;;5080077;28;20253;-56
2022/05/24 11:35:00;;;;;;;13.95;2.28;;;15.50;99.90;;;;;;5082371;28;20084;-57
2022/05/24 11:37:29;;;;;;;1.65;0.50;;;14.80;99.90;;;;;;5081667;28;20467;-54
2022/05/24 11:39:55;;;;;;;1.17;0.63;;;13.70;99.90;;;;;;5081971;28;20127;-57
2022/05/24 11:42:42;;;;;;;2.38;0.70;;;12.90;99.90;;;;;;5048506;28;20071;-55
2022/05/24 11:45:28;;;;;;;2.45;1.00;;;12.40;99.90;;;;;;5030449;28;20515;-55
2022/05/24 11:47:55;;;;;;;1.48;0.63;;;12.20;99.90;;;;;;5049969;28;20463;-55
2022/05/24 11:50:31;;;;;;;1.98;0.52;;;12.10;99.90;;;;;;5049840;28;20045;-54
2022/05/24 11:53:00;;;;;;;3.15;0.55;;;12.10;99.90;;;;;;5049685;28;20102;-54
2022/05/24 11:55:49;;;;;;;0.60;0.50;;;12.10;99.90;;;;;;5050081;28;20488;-57
2022/05/24 11:58:19;;;;;;;1.30;0.50;;;12.20;99.90;;;;;;5048620;28;20561;-54
2022/05/24 12:01:05;;;;;;;4.15;0.75;;;12.30;99.90;;;;;;5049976;28;20079;-57
2022/05/24 12:09:17;;;;;;;;;;;12.30;99.90;;;;;;5048735;28;20095;-57
2022/05/24 12:11:44;;;;;;;1.35;0.77;;;12.40;99.90;;;;;;5047947;28;19928;-56
2022/05/24 12:14:33;;;;;;;3.35;0.80;;;12.30;99.90;;;;;;5049353;28;20080;-57
2022/05/24 12:17:00;;;;;;;1.63;0.85;;;12.40;99.90;;;;;;5049241;28;20526;-56
2022/05/24 12:19:40;;;;;;;1.50;1.00;;;12.40;99.90;;;;;;5049646;28;20055;-55
2022/05/24 12:22:15;;;;;;;1.65;0.82;;;12.40;99.90;;;;;;5048500;28;20484;-52
2022/05/24 12:24:42;;;;;;;1.60;0.93;;;12.40;99.90;;;;;;5081462;28;20288;-54
2022/05/24 12:27:20;;;;;;;1.25;0.68;;;12.50;99.90;;;;;;5049117;28;20508;-57
2022/05/24 12:29:52;;;;;;;3.53;1.00;;;12.70;99.90;;;;;;5047363;28;20079;-55
2022/05/24 12:32:20;;;;;;;3.90;0.90;;;12.90;99.90;;;;;;5079976;28;20049;-56
2022/05/24 12:34:48;;;;;;;2.20;0.88;;;12.90;99.90;;;;;;5081563;28;20041;-54
2022/05/24 12:37:31;;;;;;;0.52;0.47;;;13.00;99.90;;;;;;5049112;28;20080;-54
2022/05/24 12:40:25;;;;;;;2.60;0.77;;;13.20;99.90;;;;;;5050028;28;20076;-56
2022/05/24 12:42:56;;;;;;;1.30;0.57;;;13.30;99.90;;;;;;5047481;28;20053;-54
2022/05/24 12:45:29;;;;;;;1.83;0.50;;;13.40;99.90;;;;;;5049272;28;20156;-57
2022/05/24 12:47:57;;;;;;;0.50;0.40;;;13.50;99.90;;;;;;5048843;28;20055;-56
2022/05/24 12:50:38;;;;;;;2.47;0.50;;;13.60;99.90;;;;;;5048985;28;20114;-55
2022/05/24 12:53:09;;;;;;;1.42;0.60;;;13.70;99.90;;;;;;5080733;28;20053;-57
2022/05/24 12:55:56;;;;;;;1.67;0.70;;;13.80;99.90;;;;;;5046351;28;20041;-57
2022/05/24 12:58:28;;;;;;;1.67;0.73;;;13.90;99.90;;;;;;5048813;28;20118;-56
2022/05/24 13:01:16;;;;;;;2.67;0.60;;;14.00;99.90;;;;;;4697415;28;9999908;-54
2022/05/24 13:03:51;;;;;;;0.52;0.43;;;14.20;99.90;;;;;;5077839;28;20093;-57
2022/05/24 13:06:23;;;;;;;0.40;0.40;;;14.40;99.90;;;;;;5071459;28;20110;-55
2022/05/24 13:09:11;;;;;;;1.05;0.50;;;14.50;99.90;;;;;;5075934;28;20064;-57
2022/05/24 13:11:38;;;;;;;0.40;0.40;;;14.70;99.90;;;;;;5044506;28;20427;-57
2022/05/24 13:14:05;;;;;;;1.33;1.23;;;14.90;99.90;;;;;;5045309;28;20471;-54
2022/05/24 13:16:32;;;;;;;0.95;0.52;;;14.90;99.90;;;;;;5045593;28;20155;-56
2022/05/24 13:18:59;;;;;;;2.40;1.45;;;15.10;99.90;;;;;;5043862;28;20040;-56
2022/05/24 13:21:26;;;;;;;3.55;0.60;;;15.20;99.90;;;;;;5060726;28;20184;-55
2022/05/24 13:24:11;;;;;;;1.25;0.60;;;15.10;99.90;;;;;;5077216;28;20127;-54
2022/05/24 13:26:59;;;;;;;4.07;0.70;;;15.10;99.90;;;;;;5042282;28;20084;-57
2022/05/24 13:29:29;;;;;;;3.80;0.77;;;14.90;99.90;;;;;;5045146;28;20588;-52
2022/05/24 13:34:59;;;;;;;1.92;0.85;;;14.70;99.90;;;;;;4990582;28;20574;-52
2022/05/24 13:37:45;;;;;;;1.50;0.60;;;14.60;99.90;;;;;;5059871;28;20053;-56
2022/05/24 13:40:12;;;;;;;1.05;0.70;;;14.60;99.90;;;;;;5057733;28;20045;-51
2022/05/24 13:42:54;;;;;;;0.63;0.63;;;14.50;99.90;;;;;;5077145;28;20131;-54
2022/05/24 13:45:26;;;;;;;1.75;0.75;;;14.60;99.90;;;;;;5044744;28;20792;-57
2022/05/24 13:47:58;;;;;;;1.48;0.45;;;14.60;99.90;;;;;;5076328;28;20119;-57
2022/05/24 13:50:25;;;;;;;5.53;0.60;;;14.60;99.90;;;;;;5044429;28;20434;-53